createdAt,value
2023-03-01T00:00:43.937Z,25.2
2023-03-01T00:01:45.848Z,25.2
2023-03-01T00:02:47.815Z,25.2
2023-03-01T00:03:49.798Z,25.2
2023-03-01T00:04:51.969Z,25.2
2023-03-01T00:05:53.819Z,25.2
2023-03-01T00:06:55.673Z,25.2
2023-03-01T00:07:57.498Z,25.1
2023-03-01T00:08:59.374Z,25.2
2023-03-01T00:10:01.256Z,25.2
2023-03-01T00:11:03.149Z,25.2
2023-03-01T00:12:05.432Z,25.2
2023-03-01T00:13:07.385Z,25.2
2023-03-01T00:14:09.257Z,25.2
2023-03-01T00:15:11.181Z,25.2
2023-03-01T00:16:13.739Z,25.2
2023-03-01T00:17:16.213Z,25.2
2023-03-01T00:18:18.202Z,25.2
2023-03-01T00:19:20.201Z,25.2
2023-03-01T00:20:22.066Z,25.2
2023-03-01T00:21:24.413Z,25.2
2023-03-01T00:22:26.378Z,25.2
2023-03-01T00:23:28.243Z,25.2
2023-03-01T00:24:30.097Z,25.2
2023-03-01T00:25:31.758Z,25.1
2023-03-01T00:26:33.663Z,25.2
2023-03-01T00:27:35.573Z,25.2
2023-03-01T00:28:37.440Z,25.2
2023-03-01T00:29:39.362Z,25.2
2023-03-01T00:30:41.208Z,25.2
2023-03-01T00:31:43.346Z,25.2
2023-03-01T00:32:45.356Z,25.1
2023-03-01T00:33:47.257Z,25.1
2023-03-01T00:34:49.010Z,25.2
2023-03-01T00:35:50.891Z,25.1
2023-03-01T00:36:53.112Z,25.1
2023-03-01T00:37:54.898Z,25.1
2023-03-01T00:38:56.897Z,25.2
2023-03-01T00:39:58.773Z,25.2
2023-03-01T00:41:00.611Z,25.2
2023-03-01T00:42:02.362Z,25.2
2023-03-01T00:43:04.291Z,25.1
2023-03-01T00:44:06.063Z,25.1
2023-03-01T00:45:07.946Z,25.1
2023-03-01T00:46:09.961Z,25.1
2023-03-01T00:47:12.026Z,25.1
2023-03-01T00:48:13.912Z,25.1
2023-03-01T00:49:15.743Z,25.1
2023-03-01T00:50:17.580Z,25.1
2023-03-01T00:51:19.343Z,25.1
2023-03-01T00:52:21.246Z,25.1
2023-03-01T00:53:23.040Z,25.1
2023-03-01T00:54:24.946Z,25.1
2023-03-01T00:55:26.845Z,25.1
2023-03-01T00:56:29.085Z,25.1
2023-03-01T00:57:32.134Z,25.1
2023-03-01T00:58:33.994Z,25.1
2023-03-01T00:59:35.907Z,25.1
2023-03-01T01:00:37.842Z,25.1
2023-03-01T01:01:39.694Z,25.1
2023-03-01T01:02:42.180Z,25.1
2023-03-01T01:03:44.461Z,25.1
2023-03-01T01:04:46.418Z,25.1
2023-03-01T01:05:48.302Z,25.1
2023-03-01T01:06:50.146Z,25.1
2023-03-01T01:07:51.994Z,25.1
2023-03-01T01:08:56.811Z,25.1
2023-03-01T01:09:58.657Z,25.1
2023-03-01T01:11:00.524Z,25.1
2023-03-01T01:12:02.442Z,25.1
2023-03-01T01:13:04.727Z,25.1
2023-03-01T01:14:06.468Z,25.1
2023-03-01T01:15:08.325Z,25.1
2023-03-01T01:16:10.259Z,25.1
2023-03-01T01:17:12.490Z,25.1
2023-03-01T01:18:14.392Z,25.1
2023-03-01T01:19:16.327Z,25.1
2023-03-01T01:20:18.286Z,25.1
2023-03-01T01:21:20.138Z,25.1
2023-03-01T01:22:22.012Z,25.1
2023-03-01T01:23:23.836Z,25.1
2023-03-01T01:24:25.783Z,25.1
2023-03-01T01:25:27.726Z,25.1
2023-03-01T01:26:29.922Z,25.1
2023-03-01T01:27:32.985Z,25.1
2023-03-01T01:28:34.824Z,25.1
2023-03-01T01:29:36.572Z,25.1
2023-03-01T01:30:38.433Z,25.1
2023-03-01T01:31:40.388Z,25.1
2023-03-01T01:32:42.229Z,25.1
2023-03-01T01:33:44.083Z,25.1
2023-03-01T01:34:45.924Z,25.1
2023-03-01T01:35:47.791Z,25.1
2023-03-01T01:36:49.907Z,25.1
2023-03-01T01:37:52.300Z,25.1
2023-03-01T01:38:54.140Z,25.1
2023-03-01T01:39:55.914Z,25.1
2023-03-01T01:40:57.781Z,25.1
2023-03-01T01:41:59.840Z,25.1
2023-03-01T01:43:01.745Z,25.1
2023-03-01T01:44:03.481Z,25.1
2023-03-01T01:45:05.216Z,25.1
2023-03-01T01:46:06.993Z,25.1
2023-03-01T01:47:08.959Z,25.1
2023-03-01T01:48:10.902Z,25.1
2023-03-01T01:49:12.744Z,25.1
2023-03-01T01:50:14.632Z,25.1
2023-03-01T01:51:16.546Z,25.1
2023-03-01T01:52:18.299Z,25.1
2023-03-01T01:53:20.153Z,25
2023-03-01T01:54:22.089Z,25.1
2023-03-01T01:55:23.947Z,25.1
2023-03-01T01:56:25.799Z,25.1
2023-03-01T01:57:27.664Z,25.1
2023-03-01T01:58:29.421Z,25.1
2023-03-01T01:59:31.317Z,25.1
2023-03-01T02:00:33.196Z,25.1
2023-03-01T02:01:35.057Z,25.1
2023-03-01T02:02:37.273Z,25.1
2023-03-01T02:03:39.776Z,25.1
2023-03-01T02:04:42.438Z,25.1
2023-03-01T02:05:44.227Z,25.1
2023-03-01T02:06:46.578Z,25.1
2023-03-01T02:07:48.925Z,25.1
2023-03-01T02:08:50.846Z,25.1
2023-03-01T02:09:52.644Z,25.1
2023-03-01T02:10:54.422Z,25.1
2023-03-01T02:11:56.312Z,25.1
2023-03-01T02:12:58.284Z,25.1
2023-03-01T02:14:00.200Z,25.1
2023-03-01T02:15:02.178Z,25.1
2023-03-01T02:16:06.849Z,25.1
2023-03-01T02:17:08.957Z,25.1
2023-03-01T02:18:10.833Z,25.1
2023-03-01T02:19:12.764Z,25.1
2023-03-01T02:20:14.681Z,25.1
2023-03-01T02:21:16.560Z,25.1
2023-03-01T02:22:18.425Z,25.1
2023-03-01T02:23:20.667Z,25.1
2023-03-01T02:24:22.526Z,25.1
2023-03-01T02:25:24.437Z,25.1
2023-03-01T02:26:26.318Z,25.1
2023-03-01T02:27:28.158Z,25.1
2023-03-01T02:28:30.043Z,25
2023-03-01T02:29:31.948Z,25.1
2023-03-01T02:30:33.824Z,25.1
2023-03-01T02:31:35.805Z,25.1
2023-03-01T02:32:37.821Z,25
2023-03-01T02:33:39.708Z,25
2023-03-01T02:34:41.783Z,25
2023-03-01T02:35:43.710Z,25
2023-03-01T02:36:46.051Z,25.1
2023-03-01T02:37:47.989Z,25.1
2023-03-01T02:38:49.858Z,25.1
2023-03-01T02:39:51.732Z,25.1
2023-03-01T02:40:53.643Z,25.1
2023-03-01T02:41:55.514Z,25.1
2023-03-01T02:42:57.432Z,25.1
2023-03-01T02:43:59.300Z,25.1
2023-03-01T02:45:01.150Z,25.1
2023-03-01T02:46:03.006Z,25.1
2023-03-01T02:47:04.895Z,25.1
2023-03-01T02:48:06.908Z,25
2023-03-01T02:49:08.789Z,25
2023-03-01T02:50:10.443Z,25
2023-03-01T02:51:12.351Z,25
2023-03-01T02:52:14.154Z,25
2023-03-01T02:53:15.951Z,25
2023-03-01T02:54:17.809Z,25
2023-03-01T02:55:19.658Z,25
2023-03-01T02:56:21.509Z,25
2023-03-01T02:57:23.394Z,25
2023-03-01T02:58:25.333Z,25
2023-03-01T02:59:27.216Z,25
2023-03-01T03:00:29.261Z,25
2023-03-01T03:01:31.449Z,25
2023-03-01T03:02:33.356Z,25
2023-03-01T03:03:35.177Z,25
2023-03-01T03:04:37.054Z,25
2023-03-01T03:05:39.011Z,25
2023-03-01T03:06:40.740Z,25
2023-03-01T03:07:42.847Z,25
2023-03-01T03:08:44.732Z,25
2023-03-01T03:09:46.681Z,25
2023-03-01T03:10:49.241Z,25
2023-03-01T03:11:51.009Z,25
2023-03-01T03:12:52.791Z,25
2023-03-01T03:13:54.733Z,25
2023-03-01T03:14:56.668Z,25
2023-03-01T03:15:58.534Z,25
2023-03-01T03:17:00.456Z,25
2023-03-01T03:18:02.365Z,25
2023-03-01T03:19:04.250Z,25
2023-03-01T03:20:06.130Z,25
2023-03-01T03:21:08.023Z,25
2023-03-01T03:22:09.797Z,25
2023-03-01T03:23:11.455Z,25
2023-03-01T03:24:13.300Z,25
2023-03-01T03:25:15.153Z,25
2023-03-01T03:26:17.066Z,25
2023-03-01T03:27:19.022Z,25
2023-03-01T03:28:20.900Z,25
2023-03-01T03:29:22.759Z,25
2023-03-01T03:30:24.614Z,25
2023-03-01T03:31:26.487Z,24.9
2023-03-01T03:32:28.641Z,25
2023-03-01T03:33:30.653Z,25
2023-03-01T03:34:32.543Z,25
2023-03-01T03:35:34.518Z,25
2023-03-01T03:36:37.232Z,25
2023-03-01T03:37:39.024Z,25
2023-03-01T03:38:40.995Z,25
2023-03-01T03:39:42.898Z,25
2023-03-01T03:40:44.658Z,25
2023-03-01T03:41:46.489Z,25
2023-03-01T03:42:48.231Z,25
2023-03-01T03:43:50.225Z,25
2023-03-01T03:44:52.117Z,25
2023-03-01T03:45:54.078Z,25
2023-03-01T03:46:56.244Z,25
2023-03-01T03:47:57.986Z,24.9
2023-03-01T03:48:59.897Z,24.9
2023-03-01T03:50:01.698Z,25
2023-03-01T03:51:03.578Z,25
2023-03-01T03:52:05.591Z,24.9
2023-03-01T03:53:07.444Z,24.9
2023-03-01T03:54:09.230Z,24.8
2023-03-01T03:55:11.047Z,24.7
2023-03-01T03:56:12.862Z,24.5
2023-03-01T03:57:14.807Z,24.3
2023-03-01T03:58:16.601Z,24.2
2023-03-01T03:59:18.510Z,24.1
2023-03-01T04:00:20.404Z,24
2023-03-01T04:01:22.905Z,24
2023-03-01T04:02:25.001Z,23.9
2023-03-01T04:03:27.003Z,23.9
2023-03-01T04:04:28.927Z,23.9
2023-03-01T04:05:30.777Z,23.8
2023-03-01T04:06:32.917Z,23.8
2023-03-01T04:07:35.101Z,23.8
2023-03-01T04:08:37.041Z,23.7
2023-03-01T04:09:38.902Z,23.6
2023-03-01T04:10:40.742Z,23.5
2023-03-01T04:11:42.618Z,23.4
2023-03-01T04:12:44.391Z,23.4
2023-03-01T04:13:46.299Z,23.4
2023-03-01T04:14:49.016Z,23.4
2023-03-01T04:15:50.912Z,23.3
2023-03-01T04:16:52.985Z,23.4
2023-03-01T04:17:55.132Z,23.3
2023-03-01T04:18:56.981Z,23.4
2023-03-01T04:19:58.862Z,23.4
2023-03-01T04:21:00.748Z,23.3
2023-03-01T04:22:02.564Z,23.3
2023-03-01T04:23:04.485Z,23.3
2023-03-01T04:24:06.336Z,23.4
2023-03-01T04:25:08.074Z,23.4
2023-03-01T04:26:10.014Z,23.4
2023-03-01T04:27:11.881Z,23.4
2023-03-01T04:28:13.754Z,23.4
2023-03-01T04:29:15.588Z,23.3
2023-03-01T04:30:17.401Z,23.3
2023-03-01T04:31:19.448Z,23.3
2023-03-01T04:32:21.591Z,23.2
2023-03-01T04:33:23.699Z,23.2
2023-03-01T04:34:25.440Z,23.2
2023-03-01T04:35:28.010Z,23.1
2023-03-01T04:36:31.072Z,23.1
2023-03-01T04:37:35.086Z,23
2023-03-01T04:38:36.957Z,23
2023-03-01T04:39:38.828Z,23
2023-03-01T04:40:40.813Z,23
2023-03-01T04:41:42.703Z,23
2023-03-01T04:42:44.601Z,22.9
2023-03-01T04:43:46.447Z,22.9
2023-03-01T04:44:48.262Z,22.9
2023-03-01T04:45:50.227Z,22.8
2023-03-01T04:46:52.444Z,22.9
2023-03-01T04:47:54.278Z,22.9
2023-03-01T04:48:56.110Z,22.9
2023-03-01T04:49:58.008Z,22.8
2023-03-01T04:50:59.855Z,22.8
2023-03-01T04:52:01.864Z,22.8
2023-03-01T04:53:03.917Z,22.8
2023-03-01T04:54:06.549Z,22.8
2023-03-01T04:55:08.385Z,22.8
2023-03-01T04:56:10.240Z,22.8
2023-03-01T04:57:12.084Z,22.7
2023-03-01T04:58:13.994Z,22.6
2023-03-01T04:59:15.961Z,22.7
2023-03-01T05:00:17.855Z,22.7
2023-03-01T05:01:19.880Z,22.7
2023-03-01T05:02:21.780Z,22.8
2023-03-01T05:03:23.895Z,22.8
2023-03-01T05:04:25.746Z,22.7
2023-03-01T05:05:27.828Z,22.7
2023-03-01T05:06:29.971Z,22.6
2023-03-01T05:07:33.145Z,22.5
2023-03-01T05:08:35.115Z,22.5
2023-03-01T05:09:36.945Z,22.4
2023-03-01T05:10:38.809Z,22.3
2023-03-01T05:11:40.936Z,22.3
2023-03-01T05:12:42.644Z,22.3
2023-03-01T05:13:44.398Z,22.3
2023-03-01T05:14:46.289Z,22.3
2023-03-01T05:15:48.099Z,22.3
2023-03-01T05:16:50.108Z,22.3
2023-03-01T05:17:51.962Z,22.2
2023-03-01T05:18:53.828Z,22.2
2023-03-01T05:19:55.694Z,22.2
2023-03-01T05:20:57.735Z,22.2
2023-03-01T05:21:59.833Z,22.3
2023-03-01T05:23:01.833Z,22.4
2023-03-01T05:24:04.223Z,22.5
2023-03-01T05:25:06.112Z,22.6
2023-03-01T05:26:13.629Z,22.7
2023-03-01T05:27:30.426Z,22.8
2023-03-01T05:28:32.273Z,22.9
2023-03-01T05:29:33.962Z,22.9
2023-03-01T05:30:35.861Z,23.1
2023-03-01T05:31:37.724Z,23.1
2023-03-01T05:32:39.459Z,23.2
2023-03-01T05:33:41.317Z,23.2
2023-03-01T05:34:43.258Z,23.3
2023-03-01T05:35:45.735Z,23.4
2023-03-01T05:36:47.780Z,23.4
2023-03-01T05:37:50.058Z,23.4
2023-03-01T05:38:51.899Z,23.4
2023-03-01T05:39:53.781Z,23.4
2023-03-01T05:40:55.780Z,23.5
2023-03-01T05:41:57.622Z,23.5
2023-03-01T05:42:59.498Z,23.5
2023-03-01T05:44:01.319Z,23.5
2023-03-01T05:45:03.119Z,23.5
2023-03-01T05:46:05.244Z,23.5
2023-03-01T05:47:07.212Z,23.5
2023-03-01T05:48:09.143Z,23.6
2023-03-01T05:49:11.595Z,23.7
2023-03-01T05:50:13.469Z,23.7
2023-03-01T05:51:15.308Z,23.7
2023-03-01T05:52:17.738Z,23.7
2023-03-01T05:53:19.618Z,23.7
2023-03-01T05:54:21.406Z,23.8
2023-03-01T05:55:23.417Z,23.8
2023-03-01T05:56:25.411Z,23.9
2023-03-01T05:57:27.349Z,23.9
2023-03-01T05:58:29.239Z,23.9
2023-03-01T05:59:31.085Z,23.9
2023-03-01T06:00:33.010Z,24
2023-03-01T06:01:34.928Z,24
2023-03-01T06:02:37.223Z,24
2023-03-01T06:03:39.075Z,24
2023-03-01T06:04:41.907Z,24
2023-03-01T06:05:44.270Z,24.1
2023-03-01T06:06:46.481Z,24.1
2023-03-01T06:07:48.659Z,24.1
2023-03-01T06:08:50.544Z,24
2023-03-01T06:09:52.416Z,24
2023-03-01T06:10:54.337Z,24.1
2023-03-01T06:11:56.534Z,24
2023-03-01T06:12:58.487Z,24
2023-03-01T06:14:00.228Z,24
2023-03-01T06:15:02.066Z,24.1
2023-03-01T06:16:04.044Z,24.1
2023-03-01T06:17:06.094Z,24.1
2023-03-01T06:18:07.935Z,24.2
2023-03-01T06:19:09.660Z,24.1
2023-03-01T06:20:11.534Z,24.1
2023-03-01T06:21:13.408Z,24.1
2023-03-01T06:22:15.534Z,24.2
2023-03-01T06:23:17.940Z,24.2
2023-03-01T06:24:19.872Z,24.3
2023-03-01T06:25:21.609Z,24.3
2023-03-01T06:26:23.453Z,24.3
2023-03-01T06:27:25.307Z,24.3
2023-03-01T06:28:27.161Z,24.3
2023-03-01T06:29:29.009Z,24.3
2023-03-01T06:30:30.784Z,24.3
2023-03-01T06:31:32.994Z,24.3
2023-03-01T06:32:35.177Z,24.3
2023-03-01T06:33:37.118Z,24.3
2023-03-01T06:34:38.971Z,24.4
2023-03-01T06:35:40.930Z,24.3
2023-03-01T06:36:42.959Z,24.3
2023-03-01T06:37:44.820Z,24.3
2023-03-01T06:38:46.678Z,24.4
2023-03-01T06:39:48.526Z,24.4
2023-03-01T06:40:50.350Z,24.4
2023-03-01T06:41:54.172Z,24.4
2023-03-01T06:42:56.958Z,24.4
2023-03-01T06:43:58.803Z,24.4
2023-03-01T06:45:00.566Z,24.4
2023-03-01T06:46:02.495Z,24.4
2023-03-01T06:47:04.304Z,24.3
2023-03-01T06:48:06.237Z,24.3
2023-03-01T06:49:08.138Z,24.2
2023-03-01T06:50:09.994Z,24.3
2023-03-01T06:51:12.170Z,24.3
2023-03-01T06:52:14.628Z,24.3
2023-03-01T06:53:16.444Z,24.2
2023-03-01T06:54:18.227Z,24.3
2023-03-01T06:55:19.958Z,24.4
2023-03-01T06:56:21.802Z,24.3
2023-03-01T06:57:23.750Z,24.3
2023-03-01T06:58:25.694Z,24.3
2023-03-01T06:59:27.469Z,24.3
2023-03-01T07:00:29.919Z,24.3
2023-03-01T07:01:32.130Z,24.4
2023-03-01T07:02:34.277Z,24.4
2023-03-01T07:03:36.398Z,24.4
2023-03-01T07:04:38.706Z,24.4
2023-03-01T07:05:40.660Z,24.4
2023-03-01T07:06:42.463Z,24.5
2023-03-01T07:07:44.299Z,24.5
2023-03-01T07:08:46.232Z,24.5
2023-03-01T07:09:48.102Z,24.5
2023-03-01T07:10:52.395Z,24.5
2023-03-01T07:11:54.535Z,24.6
2023-03-01T07:12:56.447Z,24.6
2023-03-01T07:13:58.380Z,24.6
2023-03-01T07:15:00.204Z,24.6
2023-03-01T07:16:02.118Z,24.6
2023-03-01T07:17:04.341Z,24.6
2023-03-01T07:18:06.107Z,24.7
2023-03-01T07:19:07.983Z,24.7
2023-03-01T07:20:09.870Z,24.7
2023-03-01T07:21:11.730Z,24.8
2023-03-01T07:22:13.614Z,24.8
2023-03-01T07:23:15.512Z,24.7
2023-03-01T07:24:17.384Z,24.7
2023-03-01T07:25:19.324Z,24.8
2023-03-01T07:26:21.197Z,24.8
2023-03-01T07:27:23.056Z,24.8
2023-03-01T07:28:25.450Z,24.8
2023-03-01T07:29:27.462Z,24.8
2023-03-01T07:30:29.389Z,24.8
2023-03-01T07:31:31.267Z,24.9
2023-03-01T07:32:33.171Z,24.9
2023-03-01T07:33:35.584Z,24.9
2023-03-01T07:34:37.325Z,24.9
2023-03-01T07:35:39.290Z,24.9
2023-03-01T07:37:54.716Z,24.9
2023-03-01T07:38:56.636Z,24.9
2023-03-01T07:39:59.149Z,25
2023-03-01T07:41:01.012Z,25
2023-03-01T07:42:02.848Z,25
2023-03-01T07:43:04.734Z,24.9
2023-03-01T07:44:06.754Z,24.9
2023-03-01T07:45:08.737Z,25
2023-03-01T07:46:10.601Z,25
2023-03-01T07:47:12.915Z,25
2023-03-01T07:48:14.746Z,24.9
2023-03-01T07:49:17.060Z,24.9
2023-03-01T07:50:18.900Z,24.9
2023-03-01T07:51:21.903Z,25
2023-03-01T07:52:24.029Z,25.1
2023-03-01T07:53:25.969Z,25
2023-03-01T07:54:27.801Z,25
2023-03-01T07:55:29.697Z,25
2023-03-01T07:56:31.887Z,25.1
2023-03-01T07:57:35.438Z,25.1
2023-03-01T07:58:37.443Z,25.1
2023-03-01T07:59:39.371Z,25.2
2023-03-01T08:00:41.301Z,25.2
2023-03-01T08:01:43.302Z,25.2
2023-03-01T08:02:45.423Z,25.2
2023-03-01T08:03:47.560Z,25.2
2023-03-01T08:04:49.524Z,25.3
2023-03-01T08:05:51.365Z,25.3
2023-03-01T08:06:53.701Z,25.3
2023-03-01T08:07:55.567Z,25.3
2023-03-01T08:08:57.700Z,25.2
2023-03-01T08:09:59.595Z,25.2
2023-03-01T08:11:01.424Z,25.3
2023-03-01T08:12:03.392Z,25.3
2023-03-01T08:13:05.245Z,25.3
2023-03-01T08:14:07.150Z,25.2
2023-03-01T08:15:09.572Z,25.2
2023-03-01T08:16:11.505Z,25.3
2023-03-01T08:17:13.547Z,25.2
2023-03-01T08:18:15.494Z,25.3
2023-03-01T08:19:17.466Z,25.3
2023-03-01T08:20:20.030Z,25.3
2023-03-01T08:21:22.484Z,25.3
2023-03-01T08:22:24.316Z,25.3
2023-03-01T08:23:26.742Z,25.3
2023-03-01T08:24:29.372Z,25.3
2023-03-01T08:25:31.371Z,25.3
2023-03-01T08:26:33.498Z,25.4
2023-03-01T08:27:35.442Z,25.4
2023-03-01T08:28:37.292Z,25.4
2023-03-01T08:29:39.266Z,25.4
2023-03-01T08:30:41.105Z,25.4
2023-03-01T08:31:43.555Z,25.4
2023-03-01T08:32:45.879Z,25.4
2023-03-01T08:33:48.255Z,25.4
2023-03-01T08:34:50.119Z,25.4
2023-03-01T08:35:52.016Z,25.4
2023-03-01T08:36:54.021Z,25.4
2023-03-01T08:37:55.879Z,25.4
2023-03-01T08:38:57.749Z,25.4
2023-03-01T08:39:59.623Z,25.4
2023-03-01T08:41:01.795Z,25.4
2023-03-01T08:42:03.727Z,25.4
2023-03-01T08:43:05.643Z,25.4
2023-03-01T08:44:07.490Z,25.4
2023-03-01T08:45:09.441Z,25.5
2023-03-01T08:46:11.433Z,25.5
2023-03-01T08:47:13.759Z,25.4
2023-03-01T08:48:15.712Z,25.4
2023-03-01T08:49:17.503Z,25.4
2023-03-01T08:50:19.914Z,25.4
2023-03-01T08:51:21.848Z,25.5
2023-03-01T08:52:23.744Z,25.5
2023-03-01T08:53:25.690Z,25.4
2023-03-01T08:54:27.597Z,25.4
2023-03-01T08:55:29.528Z,25.5
2023-03-01T08:56:31.876Z,25.5
2023-03-01T08:57:34.625Z,25.5
2023-03-01T08:58:36.470Z,25.5
2023-03-01T08:59:38.532Z,25.5
2023-03-01T09:00:40.464Z,25.5
2023-03-01T09:01:42.336Z,25.5
2023-03-01T09:02:44.289Z,25.5
2023-03-01T09:03:46.344Z,25.5
2023-03-01T09:04:48.184Z,25.5
2023-03-01T09:05:50.230Z,25.6
2023-03-01T09:06:52.092Z,25.5
2023-03-01T09:07:53.935Z,25.5
2023-03-01T09:08:56.092Z,25.5
2023-03-01T09:09:57.959Z,25.5
2023-03-01T09:10:59.896Z,25.5
2023-03-01T09:12:01.736Z,25.5
2023-03-01T09:13:03.603Z,25.5
2023-03-01T09:14:05.511Z,25.5
2023-03-01T09:15:07.267Z,25.5
2023-03-01T09:16:09.136Z,25.5
2023-03-01T09:17:11.081Z,25.5
2023-03-01T09:18:13.870Z,25.6
2023-03-01T09:19:15.797Z,25.6
2023-03-01T09:20:18.194Z,25.6
2023-03-01T09:21:24.971Z,25.6
2023-03-01T09:22:42.933Z,25.6
2023-03-01T09:23:44.945Z,25.6
2023-03-01T09:24:46.878Z,25.6
2023-03-01T09:25:48.769Z,25.6
2023-03-01T09:26:51.750Z,25.6
2023-03-01T09:27:53.667Z,25.6
2023-03-01T09:28:55.680Z,25.6
2023-03-01T09:29:57.677Z,25.6
2023-03-01T09:30:59.666Z,25.6
2023-03-01T09:32:02.048Z,25.6
2023-03-01T09:33:04.273Z,25.6
2023-03-01T09:34:06.304Z,25.5
2023-03-01T09:35:08.164Z,25.4
2023-03-01T09:36:10.074Z,25.4
2023-03-01T09:37:11.931Z,25.5
2023-03-01T09:38:13.803Z,25.5
2023-03-01T09:39:15.732Z,25.5
2023-03-01T09:40:17.753Z,25.6
2023-03-01T09:41:20.033Z,25.5
2023-03-01T09:42:21.971Z,25.5
2023-03-01T09:43:24.461Z,25.6
2023-03-01T09:44:26.342Z,25.6
2023-03-01T09:45:28.191Z,25.6
2023-03-01T09:46:30.520Z,25.6
2023-03-01T09:47:33.830Z,25.6
2023-03-01T09:48:35.816Z,25.6
2023-03-01T09:49:37.942Z,25.6
2023-03-01T09:50:39.887Z,25.6
2023-03-01T09:51:41.833Z,25.5
2023-03-01T09:52:44.358Z,25.4
2023-03-01T09:53:46.262Z,25.2
2023-03-01T09:54:48.099Z,25.1
2023-03-01T09:55:50.373Z,25.1
2023-03-01T09:56:52.408Z,25
2023-03-01T09:57:54.306Z,24.9
2023-03-01T09:58:56.344Z,25
2023-03-01T09:59:58.186Z,25
2023-03-01T10:01:00.047Z,25.1
2023-03-01T10:02:02.095Z,25.1
2023-03-01T10:03:04.471Z,25.1
2023-03-01T10:04:06.612Z,25.2
2023-03-01T10:05:08.987Z,25.2
2023-03-01T10:06:12.354Z,25.3
2023-03-01T10:07:37.071Z,25.4
2023-03-01T10:08:38.989Z,25.4
2023-03-01T10:09:40.846Z,25.4
2023-03-01T10:10:42.704Z,25.5
2023-03-01T10:11:44.688Z,25.5
2023-03-01T10:12:46.565Z,25.5
2023-03-01T10:13:48.912Z,25.5
2023-03-01T10:14:50.854Z,25.5
2023-03-01T10:15:52.695Z,25.6
2023-03-01T10:16:54.853Z,25.5
2023-03-01T10:17:56.676Z,25.5
2023-03-01T10:18:58.727Z,25.6
2023-03-01T10:20:00.601Z,25.5
2023-03-01T10:21:02.941Z,25.4
2023-03-01T10:22:05.075Z,25.4
2023-03-01T10:23:06.944Z,25.3
2023-03-01T10:24:08.791Z,25.2
2023-03-01T10:25:10.739Z,25.1
2023-03-01T10:26:12.597Z,24.9
2023-03-01T10:27:14.496Z,24.8
2023-03-01T10:28:16.382Z,24.8
2023-03-01T10:29:18.524Z,24.6
2023-03-01T10:30:20.957Z,24.6
2023-03-01T10:31:23.186Z,24.5
2023-03-01T10:32:25.476Z,24.4
2023-03-01T10:33:27.816Z,24.3
2023-03-01T10:34:30.079Z,24.3
2023-03-01T10:35:32.268Z,24.3
2023-03-01T10:36:34.295Z,24.3
2023-03-01T10:37:36.220Z,24.4
2023-03-01T10:38:38.119Z,24.5
2023-03-01T10:39:40.105Z,24.6
2023-03-01T10:40:42.090Z,24.7
2023-03-01T10:41:47.953Z,24.8
2023-03-01T10:42:49.977Z,24.8
2023-03-01T10:43:51.935Z,24.8
2023-03-01T10:44:53.683Z,24.9
2023-03-01T10:45:55.649Z,24.9
2023-03-01T10:46:57.741Z,25
2023-03-01T10:47:59.534Z,25.1
2023-03-01T10:49:01.854Z,25.1
2023-03-01T10:50:04.280Z,25.1
2023-03-01T10:51:06.255Z,25.1
2023-03-01T10:52:08.348Z,25.1
2023-03-01T10:53:10.270Z,25.2
2023-03-01T10:54:12.184Z,25.2
2023-03-01T10:55:13.955Z,25.1
2023-03-01T10:56:15.878Z,25.2
2023-03-01T10:57:18.030Z,25.2
2023-03-01T10:58:20.105Z,25.2
2023-03-01T10:59:22.047Z,25.3
2023-03-01T11:00:23.885Z,25.3
2023-03-01T11:01:26.409Z,25.3
2023-03-01T11:02:28.838Z,25.4
2023-03-01T11:03:31.255Z,25.4
2023-03-01T11:04:33.213Z,25.4
2023-03-01T11:05:35.392Z,25.4
2023-03-01T11:06:37.872Z,25.4
2023-03-01T11:07:42.616Z,25.4
2023-03-01T11:08:44.637Z,25.4
2023-03-01T11:09:46.529Z,25.4
2023-03-01T11:10:48.536Z,25.4
2023-03-01T11:11:50.385Z,25.5
2023-03-01T11:12:52.328Z,25.5
2023-03-01T11:13:54.206Z,25.5
2023-03-01T11:14:56.114Z,25.5
2023-03-01T11:15:58.145Z,25.4
2023-03-01T11:17:00.350Z,25.4
2023-03-01T11:18:12.971Z,25.5
2023-03-01T11:19:16.275Z,25.4
2023-03-01T11:20:18.280Z,25.5
2023-03-01T11:21:20.128Z,25.6
2023-03-01T11:22:22.104Z,25.6
2023-03-01T11:23:24.239Z,25.6
2023-03-01T11:24:26.243Z,25.6
2023-03-01T11:25:28.494Z,25.6
2023-03-01T11:26:30.899Z,25.6
2023-03-01T11:27:34.028Z,25.6
2023-03-01T11:28:35.771Z,25.6
2023-03-01T11:29:46.789Z,25.6
2023-03-01T11:31:05.709Z,25.6
2023-03-01T11:32:11.971Z,25.6
2023-03-01T11:33:14.505Z,25.6
2023-03-01T11:34:16.695Z,25.6
2023-03-01T11:35:18.605Z,25.6
2023-03-01T11:36:20.457Z,25.6
2023-03-01T11:37:22.624Z,25.6
2023-03-01T11:38:24.891Z,25.7
2023-03-01T11:39:27.057Z,25.7
2023-03-01T11:40:29.152Z,25.8
2023-03-01T11:41:31.363Z,25.7
2023-03-01T11:42:35.003Z,25.7
2023-03-01T11:43:37.214Z,25.7
2023-03-01T11:44:39.158Z,25.7
2023-03-01T11:45:41.410Z,25.7
2023-03-01T11:46:43.398Z,25.7
2023-03-01T11:47:46.031Z,25.7
2023-03-01T11:48:50.205Z,25.7
2023-03-01T11:49:52.192Z,25.8
2023-03-01T11:50:54.030Z,25.8
2023-03-01T11:51:56.077Z,25.8
2023-03-01T11:52:57.951Z,25.8
2023-03-01T11:53:59.834Z,25.8
2023-03-01T11:55:02.422Z,25.8
2023-03-01T11:56:04.450Z,25.8
2023-03-01T11:57:06.361Z,25.8
2023-03-01T11:58:08.327Z,25.8
2023-03-01T11:59:10.280Z,25.8
2023-03-01T12:00:12.810Z,25.8
2023-03-01T12:01:15.100Z,25.8
2023-03-01T12:02:17.054Z,25.8
2023-03-01T12:03:19.210Z,25.8
2023-03-01T12:04:21.770Z,25.9
2023-03-01T12:05:24.108Z,25.9
2023-03-01T12:06:25.987Z,25.9
2023-03-01T12:07:27.757Z,25.9
2023-03-01T12:08:29.694Z,25.9
2023-03-01T12:09:31.573Z,25.9
2023-03-01T12:10:33.705Z,25.9
2023-03-01T12:11:35.535Z,25.9
2023-03-01T12:12:37.991Z,25.9
2023-03-01T12:13:39.983Z,26
2023-03-01T12:14:42.000Z,26
2023-03-01T12:15:43.862Z,25.9
2023-03-01T12:16:45.819Z,25.9
2023-03-01T12:17:48.524Z,26
2023-03-01T12:18:50.443Z,26
2023-03-01T12:19:52.279Z,26
2023-03-01T12:20:54.130Z,26
2023-03-01T12:21:56.540Z,26
2023-03-01T12:23:01.755Z,26
2023-03-01T12:24:22.624Z,26
2023-03-01T12:25:24.611Z,26
2023-03-01T12:26:26.959Z,26
2023-03-01T12:27:28.879Z,26
2023-03-01T12:28:31.129Z,26
2023-03-01T12:29:33.001Z,26.1
2023-03-01T12:30:34.909Z,26.1
2023-03-01T12:31:36.770Z,26.1
2023-03-01T12:32:39.016Z,26
2023-03-01T12:33:41.320Z,26.1
2023-03-01T12:34:43.064Z,26.1
2023-03-01T12:35:45.004Z,26.1
2023-03-01T12:36:47.099Z,26.2
2023-03-01T12:37:49.179Z,26.2
2023-03-01T12:38:51.299Z,26.2
2023-03-01T12:39:53.188Z,26.1
2023-03-01T12:40:55.043Z,26.1
2023-03-01T12:41:57.052Z,26.1
2023-03-01T12:42:58.942Z,26.1
2023-03-01T12:44:00.843Z,26.2
2023-03-01T12:45:03.232Z,26.2
2023-03-01T12:46:05.197Z,26.2
2023-03-01T12:47:07.324Z,26.1
2023-03-01T12:48:09.313Z,26.1
2023-03-01T12:49:11.634Z,26.2
2023-03-01T12:50:13.501Z,26.2
2023-03-01T12:51:15.524Z,26.2
2023-03-01T12:52:17.412Z,26.2
2023-03-01T12:53:19.351Z,26.2
2023-03-01T12:54:21.186Z,26.2
2023-03-01T12:55:22.979Z,26.2
2023-03-01T12:56:24.927Z,26.2
2023-03-01T12:57:26.955Z,26.1
2023-03-01T12:58:34.220Z,26.1
2023-03-01T12:59:58.129Z,26.2
2023-03-01T13:01:00.136Z,26.2
2023-03-01T13:02:02.084Z,26.2
2023-03-01T13:03:04.163Z,26.3
2023-03-01T13:04:05.958Z,26.3
2023-03-01T13:05:08.155Z,26.4
2023-03-01T13:06:10.025Z,26.3
2023-03-01T13:07:12.006Z,26.3
2023-03-01T13:08:13.944Z,26.3
2023-03-01T13:09:15.928Z,26.3
2023-03-01T13:10:17.822Z,26.3
2023-03-01T13:11:19.781Z,26.3
2023-03-01T13:12:22.159Z,26.2
2023-03-01T13:13:24.307Z,26.1
2023-03-01T13:14:26.377Z,26.1
2023-03-01T13:15:28.286Z,26.1
2023-03-01T13:16:30.675Z,26.1
2023-03-01T13:17:34.373Z,26.1
2023-03-01T13:18:36.413Z,26.1
2023-03-01T13:19:38.360Z,26.1
2023-03-01T13:20:40.371Z,26.1
2023-03-01T13:21:42.303Z,26.1
2023-03-01T13:22:54.257Z,26.1
2023-03-01T13:23:56.832Z,26.1
2023-03-01T13:24:58.816Z,26.1
2023-03-01T13:26:00.806Z,26.1
2023-03-01T13:27:02.982Z,26.1
2023-03-01T13:28:04.954Z,26.1
2023-03-01T13:29:06.861Z,26.1
2023-03-01T13:30:08.727Z,26
2023-03-01T13:31:10.720Z,26
2023-03-01T13:32:12.758Z,26
2023-03-01T13:33:15.127Z,26
2023-03-01T13:34:17.955Z,26
2023-03-01T13:35:20.320Z,26
2023-03-01T13:36:22.822Z,26
2023-03-01T13:37:24.871Z,26
2023-03-01T13:38:26.721Z,26
2023-03-01T13:39:29.103Z,26
2023-03-01T13:40:30.937Z,26
2023-03-01T13:41:32.882Z,26
2023-03-01T13:42:34.701Z,26
2023-03-01T13:43:36.606Z,26
2023-03-01T13:44:38.741Z,26
2023-03-01T13:45:40.855Z,26
2023-03-01T13:46:44.037Z,26
2023-03-01T13:47:46.403Z,26
2023-03-01T13:48:48.288Z,26
2023-03-01T13:49:50.171Z,25.9
2023-03-01T13:50:52.493Z,26
2023-03-01T13:51:54.362Z,26
2023-03-01T13:52:56.188Z,26
2023-03-01T13:53:58.127Z,26.1
2023-03-01T13:55:00.162Z,26
2023-03-01T13:56:02.053Z,26
2023-03-01T13:57:03.895Z,26
2023-03-01T13:58:05.765Z,26
2023-03-01T13:59:07.800Z,26